Startpagina
METAR-TAF:

METAR-TAF

Vliegvelden :

Arctic Bay, Nunavut, Canada

breedte: 73-00-23N, lengte: 085-02-50W, hoogte: 22 m

Actueel weer

Dit bericht is 11 uur en het 59 minuten geleden gemaakt, om 22:00 UTC
Weinig wind
Temperatuur -17°C
Vochtigheid 65%
Druk 1043 hPa
Zicht: 48.3 km
Weinig wolken op 1900 ft
Weinig wolken op 3200 ft
Verspreide wolken op 22000 ft

METAR: CYAB 042200Z 00000KT 30SM FEW019 FEW032 SCT220 M17/M22 A3081 RMK SC1SC2CI1 SC TR SN GAUGE 0.0 LAST STFD OBS/NXT 061100Z SLP439

Tijdstip: 05:59 (09:59 UTC)

Verwachting

Dit bericht is 15 uur en het 21 minuten geleden gemaakt, om 18:38 UTC
Verwachting geldig van 04 om 19 UTC tot 04 om 22 UTC
Wind 3 kt uit variabele richting
Zicht: 10 km
Weinig wolken op 1500 ft
Verspreide wolken op 3000 ft
Tijdelijke
van 04 om 19 UTC tot 04 om 22 UTC
Verspreide wolken op 1500 ft
Gebroken wolken op 3000 ft

TAF: CYAB 041838Z 0419/0422 VRB03KT P6SM FEW015 SCT030 TEMPO 0419/0422 SCT015 BKN030 RMK NXT FCST WILL BE ISSUED AT 061245Z

Waarnemingen en weersverwachtingen van meer dan 4000 vliegvelden (METAR en TAF).

De beschikbare stations zijn de gele en rode punten op de kaart.

Ga met uw muis naar het station om de naam te zien.

Klik dan om waarnemingen en weersverwachtingen te zien.

kaart wijzigen: klik op de groene knoppen met een zwart kruis om in te zoomen, op de groene knop met een streepje om uit te zoomen of op de groene pijlen voor aangrenzende kaarten.


METAR-TAF: